Pagrindinis puslapis
METAR-TAF:

METAR-TAF

Oro uostai :

Bursa, Turkija

platuma: 40-15-19N, ilguma: 029-33-45E, Aukštis: 233 m

Dabartinis oras

Ataskaita buvo paskelbta 21 minutes, ne 22:50 UTC
Vėjas 2 kt iš Šiaurės Vakarų
Temperatūra 13°C
Drėgmė 88%
Slėgis 1014 hPa
Matomumas 10 km arba daugiau
nėra debesų žemiau 1500 m ir nėra kamuolinių lietaus debesų

METAR: LTBR 052250Z 31002KT CAVOK 13/11 Q1014 NOSIG RMK RWY07 VRB02KT

Laikas: 02:11 (23:11 UTC)

Prognozė

Ataskaita buvo paskelbta 6 valandos ir 31 minutes, ne 16:40 UTC
Prognozė galioja nuo 05 metu 18 UTC su 06 metu 18 UTC
Vėjas 2 kt nuo kintamojo kryptimis
Matomumas 10 km arba daugiau
nėra debesų žemiau 1500 m ir nėra kamuolinių lietaus debesų
Laikinai
nuo 06 metu 12 UTC su 06 metu 16 UTC
Vėjas 12 kt iš Šiaurės/Šiaurės Vakarų

TAF: LTBR 051640Z 0518/0618 VRB02KT CAVOK TEMPO 0612/0616 34012KT

Orai ataskaitas ir orų prognozės (METAR, TAF).

turimą stotys yra geltonos ir raudonos taškus žemėlapyje.

Perkelti pele per norėdami pamatyti stoties vardą.

Tada spustelėkite, norėdami matyti oro stebėjimo ir prognozės.

Norėdami pakeisti žemėlapį: spustelėkite ant žalios mygtukų su juodo kryžiaus žemyn,; žalią mygtuką su brūkšneliu, jei norite nutolinti; arba žalių rodyklių gretimoms žemėlapius.


METAR-TAF: